Time;durP1;ratioP1;P1;durP2;ratioP2;P2;SDS_P1;SDS_P2;PMS_P1;PMS_P2;Temp;Humidity;BMP_temperature;BMP_pressure;BME280_temperature;BME280_humidity;BME280_pressure;Samples;Min_cycle;Max_cycle;Signal;HPM_P1;HPM_P2
2022/08/02 00:02:22;;;;;;;7.20;6.50;;;;;;;-146.72;100.00;64895.28;5088976;28;20428;-76
2022/08/02 00:04:49;;;;;;;9.90;5.73;;;;;;;-146.72;100.00;64895.28;5073876;28;20439;-75
2022/08/02 00:07:16;;;;;;;6.73;6.03;;;;;;;-146.72;100.00;64895.28;5090475;28;20482;-75
2022/08/02 00:09:43;;;;;;;6.47;5.40;;;;;;;-146.72;100.00;64895.28;5090578;28;20432;-75
2022/08/02 00:12:10;;;;;;;10.70;5.60;;;;;;;-146.72;100.00;64895.28;5072934;28;20458;-75
2022/08/02 00:14:37;;;;;;;5.70;5.17;;;;;;;-146.72;100.00;64895.28;5070599;28;20931;-75
2022/08/02 00:17:05;;;;;;;6.43;5.93;;;;;;;-146.72;100.00;64895.28;5070429;28;20452;-75
2022/08/02 00:19:32;;;;;;;4.83;4.43;;;;;;;-146.72;100.00;64895.28;5070123;28;20460;-75
2022/08/02 00:21:59;;;;;;;10.30;5.83;;;;;;;-146.72;100.00;64895.28;5070259;28;20487;-75
2022/08/02 00:24:25;;;;;;;8.17;6.53;;;;;;;-146.72;100.00;64895.28;5071636;28;20788;-75
2022/08/02 00:26:56;;;;;;;7.40;5.90;;;;;;;-146.72;100.00;64895.28;5071309;28;20858;-75
2022/08/02 00:29:23;;;;;;;7.40;6.67;;;;;;;-146.72;100.00;64895.28;5053203;28;20432;-75
2022/08/02 00:31:50;;;;;;;6.23;5.63;;;;;;;-146.72;100.00;64895.28;5045709;28;20433;-73
2022/08/02 00:34:17;;;;;;;6.63;5.63;;;;;;;-146.72;100.00;64895.28;5055278;28;20428;-73
2022/08/02 00:36:56;;;;;;;6.17;5.60;;;;;;;-146.72;100.00;64895.28;5069794;28;20460;-73
2022/08/02 00:39:23;;;;;;;7.70;5.20;;;;;;;-146.72;100.00;64895.28;5086600;28;20468;-73
2022/08/02 00:42:01;;;;;;;5.83;5.30;;;;;;;-146.72;100.00;64895.28;5071295;28;20420;-73
2022/08/02 00:44:28;;;;;;;5.00;4.60;;;;;;;-146.72;100.00;64895.28;5056145;28;20630;-73
2022/08/02 00:46:55;;;;;;;5.90;5.30;;;;;;;-146.72;100.00;64895.28;5087169;28;20516;-73
2022/08/02 00:49:21;;;;;;;5.73;5.03;;;;;;;-146.72;100.00;64895.28;5075238;28;20456;-73
2022/08/02 00:51:50;;;;;;;5.47;4.80;;;;;;;-146.72;100.00;64895.28;5075099;28;20435;-73
2022/08/02 00:54:18;;;;;;;4.80;4.40;;;;;;;-146.72;100.00;64895.28;5066055;28;21029;-73
2022/08/02 00:56:45;;;;;;;4.93;4.40;;;;;;;-146.72;100.00;64895.28;5093951;28;20854;-73
2022/08/02 00:59:17;;;;;;;4.97;4.47;;;;;;;-146.72;100.00;64895.28;5062522;28;20475;-73
2022/08/02 01:01:44;;;;;;;4.90;4.27;;;;;;;-146.72;100.00;64895.28;5077508;28;21023;-73
2022/08/02 01:04:25;;;;;;;4.77;4.27;;;;;;;-146.72;100.00;64895.28;5079002;28;20431;-73
2022/08/02 01:07:02;;;;;;;5.20;4.70;;;;;;;-146.72;100.00;64895.28;5095102;28;20471;-73
2022/08/02 01:09:43;;;;;;;5.10;3.40;;;;;;;-146.72;100.00;64895.28;5082497;28;20424;-73
2022/08/02 01:12:13;;;;;;;5.40;4.83;;;;;;;-146.72;100.00;64895.28;5073528;28;20433;-73
2022/08/02 01:14:42;;;;;;;5.10;4.60;;;;;;;-146.72;100.00;64895.28;5043370;28;20477;-73
2022/08/02 01:17:14;;;;;;;4.17;3.87;;;;;;;-146.72;100.00;64895.28;5086252;28;20995;-73
2022/08/02 01:19:54;;;;;;;4.20;3.80;;;;;;;-146.72;100.00;64895.28;5074442;28;20947;-73
2022/08/02 01:23:01;;;;;;;5.00;4.07;;;;;;;-146.72;100.00;64895.28;5056988;28;20479;-73
2022/08/02 01:26:06;;;;;;;4.80;4.40;;;;;;;-146.72;100.00;64895.28;5053104;28;20468;-73
2022/08/02 01:28:51;;;;;;;5.47;4.90;;;;;;;-146.72;100.00;64895.28;5062485;28;20473;-73
2022/08/02 01:31:33;;;;;;;3.83;3.53;;;;;;;-146.72;100.00;64895.28;5073678;28;20482;-73
2022/08/02 01:34:10;;;;;;;4.80;4.40;;;;;;;-146.72;100.00;64895.28;5071551;28;20449;-73
2022/08/02 01:36:40;;;;;;;4.50;4.10;;;;;;;-146.72;100.00;64895.28;5082812;28;20491;-72
2022/08/02 01:39:13;;;;;;;5.23;4.73;;;;;;;-146.72;100.00;64895.28;5079647;28;20484;-72
2022/08/02 01:41:59;;;;;;;4.20;3.73;;;;;;;-146.72;100.00;64895.28;5095668;28;20462;-73
2022/08/02 01:44:29;;;;;;;5.00;4.53;;;;;;;-146.72;100.00;64895.28;5065674;28;20486;-73
2022/08/02 01:46:59;;;;;;;9.60;5.03;;;;;;;-146.72;100.00;64895.28;5073012;28;20495;-73
2022/08/02 01:49:29;;;;;;;5.07;4.67;;;;;;;-146.72;100.00;64895.28;5072641;28;20443;-73
2022/08/02 01:54:45;;;;;;;5.20;4.80;;;;;;;-146.72;100.00;64895.28;5089210;28;20446;-73
2022/08/02 01:57:15;;;;;;;4.40;4.10;;;;;;;-146.72;100.00;64895.28;5072633;28;20448;-73
2022/08/02 01:59:44;;;;;;;4.40;4.00;;;;;;;-146.72;100.00;64895.28;5089356;28;20499;-73
2022/08/02 02:02:13;;;;;;;4.73;4.33;;;;;;;-146.72;100.00;64895.28;5072314;28;20460;-73
2022/08/02 02:04:42;;;;;;;3.70;3.40;;;;;;;-146.72;100.00;64895.28;5073697;28;20916;-73
2022/08/02 02:07:11;;;;;;;4.53;4.03;;;;;;;-146.72;100.00;64895.28;5072131;28;20531;-73
2022/08/02 02:09:39;;;;;;;9.13;4.53;;;;;;;-146.72;100.00;64895.28;5055846;28;20451;-73
2022/08/02 02:12:18;;;;;;;4.27;3.97;;;;;;;-146.72;100.00;64895.28;5074028;28;20757;-75
2022/08/02 02:14:47;;;;;;;4.60;4.20;;;;;;;-146.72;100.00;64895.28;5072290;28;20859;-74
2022/08/02 02:17:21;;;;;;;5.13;4.30;;;;;;;-146.72;100.00;64895.28;5073753;28;20444;-73
2022/08/02 02:20:12;;;;;;;5.13;3.83;;;;;;;-146.72;100.00;64895.28;5089045;28;20472;-73
2022/08/02 02:22:39;;;;;;;4.60;3.90;;;;;;;-146.72;100.00;64895.28;5055837;28;20440;-73
2022/08/02 02:25:08;;;;;;;4.23;3.87;;;;;;;-146.72;100.00;64895.28;5072441;28;20532;-75
2022/08/02 02:27:42;;;;;;;4.40;4.00;;;;;;;-146.72;100.00;64895.28;5055963;28;20960;-75
2022/08/02 02:30:11;;;;;;;4.60;4.20;;;;;;;-146.72;100.00;64895.28;5056038;28;20490;-75
2022/08/02 02:32:40;;;;;;;8.83;5.37;;;;;;;-146.72;100.00;64895.28;5072352;28;20441;-76
2022/08/02 02:35:09;;;;;;;6.43;4.00;;;;;;;-146.72;100.00;64895.28;5071941;28;21264;-76
2022/08/02 02:37:37;;;;;;;4.30;3.60;;;;;;;-146.72;100.00;64895.28;5057122;28;20448;-76
2022/08/02 02:40:06;;;;;;;4.30;3.97;;;;;;;-146.72;100.00;64895.28;5092175;28;20470;-76
2022/08/02 02:42:34;;;;;;;5.07;3.83;;;;;;;-146.72;100.00;64895.28;5075988;28;20847;-76
2022/08/02 02:45:02;;;;;;;4.43;4.03;;;;;;;-146.72;100.00;64895.28;5082721;28;20508;-76
2022/08/02 02:47:30;;;;;;;5.23;3.70;;;;;;;-146.72;100.00;64895.28;5091639;28;20819;-76
2022/08/02 02:50:09;;;;;;;3.90;3.60;;;;;;;-146.72;100.00;64895.28;5076866;28;20548;-76
2022/08/02 02:52:38;;;;;;;5.10;4.37;;;;;;;-146.72;100.00;64895.28;5091674;28;20489;-76
2022/08/02 02:55:07;;;;;;;5.37;4.97;;;;;;;-146.72;100.00;64895.28;5075166;28;20432;-76
2022/08/02 02:57:36;;;;;;;4.80;4.40;;;;;;;-146.72;100.00;64895.28;5091714;28;20684;-76
2022/08/02 03:00:09;;;;;;;6.30;4.23;;;;;;;-146.72;100.00;64895.28;5091866;28;20534;-76
2022/08/02 03:02:42;;;;;;;5.30;4.03;;;;;;;-146.72;100.00;64895.28;5058900;28;20432;-76
2022/08/02 03:05:11;;;;;;;7.20;5.80;;;;;;;-146.72;100.00;64895.28;5072502;28;20459;-76
2022/08/02 03:07:39;;;;;;;5.93;5.33;;;;;;;-146.72;100.00;64895.28;5054009;28;20494;-76
2022/08/02 03:10:06;;;;;;;5.70;3.97;;;;;;;-146.72;100.00;64895.28;5088173;28;20446;-76
2022/08/02 03:12:34;;;;;;;4.87;4.13;;;;;;;-146.72;100.00;64895.28;5045505;28;20536;-76
2022/08/02 03:15:04;;;;;;;4.50;4.13;;;;;;;-146.72;100.00;64895.28;5084789;28;21291;-76
2022/08/02 03:17:57;;;;;;;5.40;3.97;;;;;;;-146.72;100.00;64895.28;5092790;28;20439;-76
2022/08/02 03:20:24;;;;;;;5.00;4.37;;;;;;;-146.72;100.00;64895.28;5091486;28;20472;-75
2022/08/02 03:22:51;;;;;;;4.90;4.50;;;;;;;-146.72;100.00;64895.28;5074300;28;20808;-75
2022/08/02 03:25:18;;;;;;;4.37;3.97;;;;;;;-146.72;100.00;64895.28;5091447;28;20777;-76
2022/08/02 03:27:45;;;;;;;3.53;3.30;;;;;;;-146.72;100.00;64895.28;5089274;28;20445;-76
2022/08/02 03:30:13;;;;;;;6.07;3.93;;;;;;;-146.72;100.00;64895.28;5071429;28;20446;-76
2022/08/02 03:32:41;;;;;;;5.40;4.03;;;;;;;-146.72;100.00;64895.28;5071148;28;20502;-76
2022/08/02 03:35:11;;;;;;;3.80;3.30;;;;;;;-146.72;100.00;64895.28;5057505;28;20463;-76
2022/08/02 03:37:39;;;;;;;4.97;3.30;;;;;;;-146.72;100.00;64895.28;5091178;28;20450;-76
2022/08/02 03:40:08;;;;;;;5.60;4.37;;;;;;;-146.72;100.00;64895.28;5074256;28;20505;-76
2022/08/02 03:42:36;;;;;;;5.83;4.50;;;;;;;-146.72;100.00;64895.28;5092235;28;20477;-76
2022/08/02 03:45:04;;;;;;;3.83;3.53;;;;;;;-146.72;100.00;64895.28;5080631;28;20532;-76
2022/08/02 03:47:37;;;;;;;4.20;3.80;;;;;;;-146.72;100.00;64895.28;5071769;28;20509;-76
2022/08/02 03:50:10;;;;;;;4.17;3.70;;;;;;;-146.72;100.00;64895.28;5054260;28;20802;-76
2022/08/02 03:52:39;;;;;;;6.50;4.10;;;;;;;-146.72;100.00;64895.28;5075890;28;20455;-76
2022/08/02 03:55:07;;;;;;;6.27;3.93;;;;;;;-146.72;100.00;64895.28;5090883;28;20436;-76
2022/08/02 03:57:37;;;;;;;7.33;3.97;;;;;;;-146.72;100.00;64895.28;5091064;28;20866;-76
2022/08/02 04:00:06;;;;;;;5.60;5.10;;;;;;;-146.72;100.00;64895.28;5090622;28;21002;-76
2022/08/02 04:02:38;;;;;;;4.23;3.87;;;;;;;-146.72;100.00;64895.28;5071773;28;20424;-76
2022/08/02 04:05:05;;;;;;;5.93;4.50;;;;;;;-146.72;100.00;64895.28;5070387;28;20889;-76
2022/08/02 04:07:31;;;;;;;6.27;4.00;;;;;;;-146.72;100.00;64895.28;5071525;28;20847;-76
2022/08/02 04:10:18;;;;;;;8.30;3.70;;;;;;;-146.72;100.00;64895.28;5070333;28;20438;-76
2022/08/02 04:12:45;;;;;;;3.80;3.50;;;;;;;-146.72;100.00;64895.28;5070428;28;20831;-76
2022/08/02 04:15:13;;;;;;;4.63;4.23;;;;;;;-146.72;100.00;64895.28;5089713;28;20519;-76
2022/08/02 04:17:49;;;;;;;5.07;4.50;;;;;;;-146.72;100.00;64895.28;5090169;28;20660;-76
2022/08/02 04:20:24;;;;;;;4.43;3.90;;;;;;;-146.72;100.00;64895.28;5073469;28;20467;-76
2022/08/02 04:22:59;;;;;;;4.33;3.60;;;;;;;-146.72;100.00;64895.28;5090346;28;20451;-76
2022/08/02 04:25:26;;;;;;;7.30;4.70;;;;;;;-146.72;100.00;64895.28;5090252;28;20431;-76
2022/08/02 04:28:08;;;;;;;6.77;4.33;;;;;;;-146.72;100.00;64895.28;5059506;28;20439;-76
2022/08/02 04:30:48;;;;;;;5.20;3.67;;;;;;;-146.72;100.00;64895.28;5054954;28;20919;-76
2022/08/02 04:33:15;;;;;;;4.03;3.73;;;;;;;-146.72;100.00;64895.28;5070457;28;20859;-76
2022/08/02 04:35:43;;;;;;;6.20;4.33;;;;;;;-146.72;100.00;64895.28;5077975;28;20424;-76
2022/08/02 04:38:13;;;;;;;5.03;3.50;;;;;;;-146.72;100.00;64895.28;5073596;28;20574;-76
2022/08/02 04:40:48;;;;;;;7.83;3.87;;;;;;;-146.72;100.00;64895.28;5090307;28;20459;-76
2022/08/02 04:43:15;;;;;;;6.87;4.30;;;;;;;-146.72;100.00;64895.28;5053325;28;20440;-76
2022/08/02 04:45:43;;;;;;;3.90;3.50;;;;;;;-146.72;100.00;64895.28;5071099;28;20508;-76
2022/08/02 04:48:09;;;;;;;5.30;4.80;;;;;;;-146.72;100.00;64895.28;5070247;28;20440;-76
2022/08/02 04:50:36;;;;;;;4.87;3.77;;;;;;;-146.72;100.00;64895.28;5071268;28;20416;-74
2022/08/02 04:53:03;;;;;;;7.13;4.37;;;;;;;-146.72;100.00;64895.28;5044688;28;20473;-74
2022/08/02 04:55:30;;;;;;;5.10;4.00;;;;;;;-146.72;100.00;64895.28;5078757;28;20470;-74
2022/08/02 04:57:57;;;;;;;4.90;4.20;;;;;;;-146.72;100.00;64895.28;5069715;28;20488;-74
2022/08/02 05:00:28;;;;;;;5.90;5.30;;;;;;;-146.72;100.00;64895.28;5071463;28;20460;-76
2022/08/02 05:02:56;;;;;;;5.00;4.60;;;;;;;-146.72;100.00;64895.28;5071561;28;20475;-76
2022/08/02 05:05:22;;;;;;;4.30;3.90;;;;;;;-146.72;100.00;64895.28;5088114;28;20428;-76
2022/08/02 05:07:49;;;;;;;4.40;4.00;;;;;;;-146.72;100.00;64895.28;5073113;28;20455;-76
2022/08/02 05:10:16;;;;;;;5.40;4.90;;;;;;;-146.72;100.00;64895.28;5091308;28;20419;-76
2022/08/02 05:12:42;;;;;;;6.80;5.70;;;;;;;-146.72;100.00;64895.28;5089726;28;20542;-76
2022/08/02 05:15:11;;;;;;;4.70;4.30;;;;;;;-146.72;100.00;64895.28;5073227;28;20459;-76
2022/08/02 05:17:39;;;;;;;7.50;5.17;;;;;;;-146.72;100.00;64895.28;5072882;28;20443;-76
2022/08/02 05:20:15;;;;;;;4.77;4.37;;;;;;;-146.72;100.00;64895.28;5089534;28;20570;-76
2022/08/02 05:22:42;;;;;;;5.00;4.60;;;;;;;-146.72;100.00;64895.28;5089734;28;20512;-76
2022/08/02 05:25:10;;;;;;;4.87;4.43;;;;;;;-146.72;100.00;64895.28;5085007;28;20428;-76
2022/08/02 05:27:37;;;;;;;7.20;5.13;;;;;;;-146.72;100.00;64895.28;5069421;28;20479;-76
2022/08/02 05:30:05;;;;;;;5.73;4.93;;;;;;;-146.72;100.00;64895.28;5071217;28;20433;-76
2022/08/02 05:32:32;;;;;;;4.53;3.87;;;;;;;-146.72;100.00;64895.28;5053012;28;20488;-76
2022/08/02 05:35:02;;;;;;;4.77;4.37;;;;;;;-146.72;100.00;64895.28;5075920;28;20482;-76
2022/08/02 05:37:30;;;;;;;6.30;5.20;;;;;;;-146.72;100.00;64895.28;5093335;28;20943;-76
2022/08/02 05:39:58;;;;;;;5.63;4.47;;;;;;;-146.72;100.00;64895.28;5072678;28;20467;-76
2022/08/02 05:42:30;;;;;;;5.50;4.30;;;;;;;-146.72;100.00;64895.28;5072693;28;20425;-73
2022/08/02 05:44:57;;;;;;;3.97;3.70;;;;;;;-146.72;100.00;64895.28;5074045;28;20452;-74
2022/08/02 05:47:24;;;;;;;4.83;4.43;;;;;;;-146.72;100.00;64895.28;5072406;28;20487;-74
2022/08/02 05:49:51;;;;;;;4.70;4.30;;;;;;;-146.72;100.00;64895.28;5089311;28;20427;-74
2022/08/02 05:52:19;;;;;;;4.57;4.07;;;;;;;-146.72;100.00;64895.28;5072404;28;20487;-74
2022/08/02 05:54:52;;;;;;;4.80;4.40;;;;;;;-146.72;100.00;64895.28;5055828;28;21015;-74
2022/08/02 05:57:36;;;;;;;4.37;3.90;;;;;;;-146.72;100.00;64895.28;5072408;28;20480;-76
2022/08/02 06:00:13;;;;;;;4.30;4.00;;;;;;;-146.72;100.00;64895.28;5056738;28;20579;-76
2022/08/02 06:03:03;;;;;;;5.00;4.60;;;;;;;-146.72;100.00;64895.28;5072399;28;20428;-76
2022/08/02 06:05:34;;;;;;;5.63;3.97;;;;;;;-146.72;100.00;64895.28;5089393;28;20444;-76
2022/08/02 06:08:03;;;;;;;4.30;3.90;;;;;;;-146.72;100.00;64895.28;5055485;28;20471;-76
2022/08/02 06:10:35;;;;;;;3.77;3.30;;;;;;;-146.72;100.00;64895.28;5072309;28;20441;-76
2022/08/02 06:13:07;;;;;;;4.90;3.60;;;;;;;-146.72;100.00;64895.28;5073530;28;20653;-76
2022/08/02 06:15:36;;;;;;;3.20;3.00;;;;;;;-146.72;100.00;64895.28;5073479;28;20452;-76
2022/08/02 06:18:19;;;;;;;4.23;3.93;;;;;;;-146.72;100.00;64895.28;5073383;28;20424;-76
2022/08/02 06:21:01;;;;;;;3.67;3.37;;;;;;;-146.72;100.00;64895.28;5088951;28;20570;-76
2022/08/02 06:23:48;;;;;;;4.07;2.93;;;;;;;-146.72;100.00;64895.28;5059457;28;20999;-76
2022/08/02 06:26:26;;;;;;;2.80;2.60;;;;;;;-146.72;100.00;64895.28;5054963;28;20537;-76
2022/08/02 06:28:55;;;;;;;2.87;2.67;;;;;;;-146.72;100.00;64895.28;5071487;28;20440;-76
2022/08/02 06:31:21;;;;;;;3.90;3.60;;;;;;;-146.72;100.00;64895.28;5071537;28;20732;-76
2022/08/02 06:33:48;;;;;;;2.90;2.70;;;;;;;-146.72;100.00;64895.28;5069849;28;20528;-76
2022/08/02 06:36:34;;;;;;;4.60;3.53;;;;;;;-146.72;100.00;64895.28;5087155;28;20981;-76
2022/08/02 06:39:09;;;;;;;3.80;3.10;;;;;;;-146.72;100.00;64895.28;5092820;28;20919;-76
2022/08/02 06:41:41;;;;;;;3.40;3.10;;;;;;;-146.72;100.00;64895.28;5091702;28;20536;-76
2022/08/02 06:44:21;;;;;;;3.27;2.97;;;;;;;-146.72;100.00;64895.28;5091868;28;20442;-76
2022/08/02 06:47:08;;;;;;;3.90;2.97;;;;;;;-146.72;100.00;64895.28;5090990;28;20465;-76
2022/08/02 06:49:39;;;;;;;2.70;2.60;;;;;;;-146.72;100.00;64895.28;5087496;28;20425;-76
2022/08/02 06:52:19;;;;;;;2.73;2.53;;;;;;;-146.72;100.00;64895.28;5071168;28;20430;-76
2022/08/02 06:54:52;;;;;;;3.00;2.70;;;;;;;-146.72;100.00;64895.28;5058022;28;20491;-76
2022/08/02 06:57:19;;;;;;;4.00;3.00;;;;;;;-146.72;100.00;64895.28;5051737;28;20514;-76
2022/08/02 06:59:45;;;;;;;4.10;3.43;;;;;;;-146.72;100.00;64895.28;5072322;28;20968;-76
2022/08/02 07:02:12;;;;;;;4.37;3.20;;;;;;;-146.72;100.00;64895.28;5072137;28;20475;-76
2022/08/02 07:04:39;;;;;;;4.27;3.97;;;;;;;-146.72;100.00;64895.28;5087841;28;20527;-76
2022/08/02 07:07:06;;;;;;;3.60;3.10;;;;;;;-146.72;100.00;64895.28;5053137;28;20534;-76
2022/08/02 07:09:33;;;;;;;4.00;3.10;;;;;;;-146.72;100.00;64895.28;5071932;28;20863;-76
2022/08/02 07:11:59;;;;;;;3.83;3.53;;;;;;;-146.72;100.00;64895.28;5075048;28;20440;-76
2022/08/02 07:14:26;;;;;;;3.40;3.20;;;;;;;-146.72;100.00;64895.28;5092204;28;20427;-76
2022/08/02 07:16:53;;;;;;;2.57;2.37;;;;;;;-146.72;100.00;64895.28;5091978;28;20451;-76
2022/08/02 07:19:19;;;;;;;7.23;2.83;;;;;;;-146.72;100.00;64895.28;5090753;28;20467;-76
2022/08/02 07:21:47;;;;;;;4.43;2.60;;;;;;;-146.72;100.00;64895.28;5090651;28;20463;-76
2022/08/02 07:24:26;;;;;;;3.00;2.70;;;;;;;-146.72;100.00;64895.28;5092109;28;20427;-76
2022/08/02 07:26:52;;;;;;;2.63;2.40;;;;;;;-146.72;100.00;64895.28;5076305;28;20488;-76
2022/08/02 07:29:37;;;;;;;2.43;2.23;;;;;;;-146.72;100.00;64895.28;5067887;28;20958;-76
2022/08/02 07:32:11;;;;;;;2.70;2.50;;;;;;;-146.72;100.00;64895.28;5070273;28;20437;-74
2022/08/02 07:34:38;;;;;;;2.50;2.30;;;;;;;-146.72;100.00;64895.28;5070386;28;20427;-74
2022/08/02 07:37:08;;;;;;;2.43;2.23;;;;;;;-146.72;100.00;64895.28;5091829;28;20455;-74
2022/08/02 07:39:37;;;;;;;3.97;2.07;;;;;;;-146.72;100.00;64895.28;5086574;28;20539;-74
2022/08/02 07:42:09;;;;;;;1.93;1.83;;;;;;;-146.72;100.00;64895.28;5070374;28;20474;-74
2022/08/02 07:44:37;;;;;;;2.37;2.17;;;;;;;-146.72;100.00;64895.28;5046277;28;20531;-74
2022/08/02 07:47:04;;;;;;;2.53;2.33;;;;;;;-146.72;100.00;64895.28;5091507;28;20451;-74
2022/08/02 07:49:31;;;;;;;2.37;2.27;;;;;;;-146.72;100.00;64895.28;5090100;28;20448;-74
2022/08/02 07:51:57;;;;;;;2.00;1.90;;;;;;;-146.72;100.00;64895.28;5073218;28;20982;-76
2022/08/02 07:54:24;;;;;;;2.57;2.37;;;;;;;-146.72;100.00;64895.28;5090380;28;20419;-76
2022/08/02 07:56:53;;;;;;;2.30;2.07;;;;;;;-146.72;100.00;64895.28;5077982;28;20452;-75
2022/08/02 07:59:24;;;;;;;2.50;2.30;;;;;;;-146.72;100.00;64895.28;5057552;28;20536;-75
2022/08/02 08:01:51;;;;;;;3.07;2.77;;;;;;;-146.72;100.00;64895.28;5069779;28;20460;-74
2022/08/02 08:04:18;;;;;;;3.40;3.10;;;;;;;-146.72;100.00;64895.28;5069834;28;20486;-74
2022/08/02 08:06:50;;;;;;;2.60;2.40;;;;;;;-146.72;100.00;64895.28;5070974;28;20490;-74
2022/08/02 08:09:18;;;;;;;2.43;2.23;;;;;;;-146.72;100.00;64895.28;5049773;28;20441;-75
2022/08/02 08:11:45;;;;;;;2.43;2.23;;;;;;;-146.72;100.00;64895.28;5081246;28;20763;-76
2022/08/02 08:14:12;;;;;;;2.03;1.93;;;;;;;-146.72;100.00;64895.28;5090060;28;20445;-77
2022/08/02 08:16:43;;;;;;;2.33;2.13;;;;;;;-146.72;100.00;64895.28;5091273;28;20443;-76
2022/08/02 08:19:09;;;;;;;5.80;2.70;;;;;;;-146.72;100.00;64895.28;5090511;28;20439;-76
2022/08/02 08:21:36;;;;;;;3.23;2.60;;;;;;;-146.72;100.00;64895.28;5086684;28;20463;-76
2022/08/02 08:24:03;;;;;;;2.67;2.47;;;;;;;-146.72;100.00;64895.28;5070922;28;20424;-76
2022/08/02 08:26:30;;;;;;;2.40;2.20;;;;;;;-146.72;100.00;64895.28;5069742;28;20445;-77
2022/08/02 08:28:57;;;;;;;3.80;2.50;;;;;;;-146.72;100.00;64895.28;5069666;28;20939;-77
2022/08/02 08:31:24;;;;;;;3.40;2.30;;;;;;;-146.72;100.00;64895.28;5069686;28;20839;-76
2022/08/02 08:33:51;;;;;;;2.63;2.43;;;;;;;-146.72;100.00;64895.28;5067710;28;20845;-74
2022/08/02 08:36:20;;;;;;;2.60;2.37;;;;;;;-146.72;100.00;64895.28;5068269;28;20793;-74
2022/08/02 08:38:47;;;;;;;4.20;2.03;;;;;;;-146.72;100.00;64895.28;5086384;28;20449;-74
2022/08/02 08:41:18;;;;;;;3.20;2.33;;;;;;;-146.72;100.00;64895.28;5069341;28;20458;-76
2022/08/02 08:43:46;;;;;;;2.90;2.70;;;;;;;-146.72;100.00;64895.28;5052956;28;20531;-77
2022/08/02 08:46:27;;;;;;;5.23;2.73;;;;;;;-146.72;100.00;64895.28;5049685;28;20476;-76
2022/08/02 08:49:31;;;;;;;6.13;2.73;;;;;;;-146.72;100.00;64895.28;5052894;28;20436;-77
2022/08/02 08:52:05;;;;;;;2.20;2.10;;;;;;;-146.72;100.00;64895.28;5045390;28;20460;-77
2022/08/02 08:54:34;;;;;;;2.63;2.43;;;;;;;-146.72;100.00;64895.28;5069629;28;20469;-77
2022/08/02 08:57:04;;;;;;;3.43;3.10;;;;;;;-146.72;100.00;64895.28;5052658;28;20543;-76
2022/08/02 08:59:32;;;;;;;2.47;2.30;;;;;;;-146.72;100.00;64895.28;5086197;28;20436;-76
2022/08/02 09:02:05;;;;;;;2.80;2.60;;;;;;;-146.72;100.00;64895.28;5056684;28;20463;-77
2022/08/02 09:04:47;;;;;;;2.80;2.60;;;;;;;-146.72;100.00;64895.28;5091356;28;20430;-75
2022/08/02 09:07:21;;;;;;;3.00;2.77;;;;;;;-146.72;100.00;64895.28;5094496;28;20462;-75
2022/08/02 09:09:48;;;;;;;3.03;2.83;;;;;;;-146.72;100.00;64895.28;5076471;28;20518;-77
2022/08/02 09:12:16;;;;;;;3.43;3.20;;;;;;;-146.72;100.00;64895.28;5059727;28;20459;-74
2022/08/02 09:14:45;;;;;;;2.70;2.50;;;;;;;-146.72;100.00;64895.28;5056268;28;20482;-74
2022/08/02 09:17:16;;;;;;;3.20;2.90;;;;;;;-146.72;100.00;64895.28;5074138;28;20505;-75
2022/08/02 09:19:43;;;;;;;3.80;3.20;;;;;;;-146.72;100.00;64895.28;5071122;28;20436;-75
2022/08/02 09:22:13;;;;;;;2.90;2.70;;;;;;;-146.72;100.00;64895.28;5093109;28;20459;-75
2022/08/02 09:24:45;;;;;;;5.67;2.60;;;;;;;-146.72;100.00;64895.28;5090781;28;20438;-75
2022/08/02 09:27:16;;;;;;;3.43;3.13;;;;;;;-146.72;100.00;64895.28;5072813;28;20942;-75
2022/08/02 09:29:50;;;;;;;3.57;3.27;;;;;;;-146.72;100.00;64895.28;5072489;28;20867;-75
2022/08/02 09:32:48;;;;;;;3.10;2.90;;;;;;;-146.72;100.00;64895.28;5073545;28;20457;-75
2022/08/02 09:35:41;;;;;;;3.20;3.00;;;;;;;-146.72;100.00;64895.28;5077873;28;20432;-74
2022/08/02 09:38:28;;;;;;;3.27;3.07;;;;;;;-146.72;100.00;64895.28;5058935;28;20517;-75
2022/08/02 09:40:55;;;;;;;3.80;3.30;;;;;;;-146.72;100.00;64895.28;5073687;28;20456;-75
2022/08/02 09:43:42;;;;;;;3.90;3.60;;;;;;;-146.72;100.00;64895.28;5072535;28;20880;-75
2022/08/02 09:46:32;;;;;;;3.30;3.10;;;;;;;-146.72;100.00;64895.28;5061680;28;20459;-76
2022/08/02 09:49:01;;;;;;;3.20;3.00;;;;;;;-146.72;100.00;64895.28;5072561;28;20468;-75
2022/08/02 09:51:30;;;;;;;4.17;3.37;;;;;;;-146.72;100.00;64895.28;5081317;28;20459;-75
2022/08/02 09:54:00;;;;;;;3.53;3.23;;;;;;;-146.72;100.00;64895.28;5076808;28;20508;-75
2022/08/02 09:56:49;;;;;;;2.80;2.60;;;;;;;-146.72;100.00;64895.28;5057008;28;20464;-76
2022/08/02 09:59:18;;;;;;;3.20;2.83;;;;;;;-146.72;100.00;64895.28;5055933;28;20448;-75
2022/08/02 10:01:47;;;;;;;6.23;3.30;;;;;;;-146.72;100.00;64895.28;5085476;28;20491;-75
2022/08/02 10:04:30;;;;;;;3.33;3.13;;;;;;;-146.72;100.00;64895.28;5092410;28;20517;-75
2022/08/02 10:07:02;;;;;;;3.63;2.93;;;;;;;-146.72;100.00;64895.28;5078528;28;20463;-75
2022/08/02 10:09:30;;;;;;;3.20;2.90;;;;;;;-146.72;100.00;64895.28;5065696;28;20949;-75
2022/08/02 10:11:58;;;;;;;2.93;2.63;;;;;;;-146.72;100.00;64895.28;5071886;28;20428;-76
2022/08/02 10:14:25;;;;;;;2.67;2.47;;;;;;;-146.72;100.00;64895.28;5083960;28;20798;-76
2022/08/02 10:16:53;;;;;;;3.80;3.00;;;;;;;-146.72;100.00;64895.28;5061650;28;20459;-75
2022/08/02 10:19:20;;;;;;;3.87;2.90;;;;;;;-146.72;100.00;64895.28;5092025;28;20795;-76
2022/08/02 10:22:12;;;;;;;3.40;3.10;;;;;;;-146.72;100.00;64895.28;5059196;28;20467;-75
2022/08/02 10:24:41;;;;;;;3.27;3.07;;;;;;;-146.72;100.00;64895.28;5074795;28;20432;-75
2022/08/02 10:27:16;;;;;;;3.20;3.00;;;;;;;-146.72;100.00;64895.28;5081817;28;20467;-75
2022/08/02 10:29:45;;;;;;;3.77;3.47;;;;;;;-146.72;100.00;64895.28;5089157;28;20424;-76
2022/08/02 10:32:36;;;;;;;3.40;3.20;;;;;;;-146.72;100.00;64895.28;5064460;28;20424;-75
2022/08/02 10:35:10;;;;;;;3.93;3.63;;;;;;;-146.72;100.00;64895.28;5071721;28;20440;-76
2022/08/02 10:37:48;;;;;;;3.50;3.20;;;;;;;-146.72;100.00;64895.28;5089737;28;20443;-76
2022/08/02 10:40:35;;;;;;;2.97;2.77;;;;;;;-146.72;100.00;64895.28;5091971;28;20497;-75
2022/08/02 10:43:01;;;;;;;3.77;3.47;;;;;;;-146.72;100.00;64895.28;5014165;28;20513;-75
2022/08/02 10:45:28;;;;;;;3.57;3.37;;;;;;;-146.72;100.00;64895.28;4997851;28;20492;-75
2022/08/02 10:47:56;;;;;;;3.67;3.00;;;;;;;-146.72;100.00;64895.28;5010791;28;20469;-75
2022/08/02 10:50:44;;;;;;;3.70;3.50;;;;;;;-146.72;100.00;64895.28;4994132;28;20454;-74
2022/08/02 10:53:32;;;;;;;4.70;3.87;;;;;;;-146.72;100.00;64895.28;5003695;28;20489;-75
2022/08/02 10:56:02;;;;;;;3.50;3.20;;;;;;;-146.72;100.00;64895.28;5000707;28;20439;-74
2022/08/02 10:58:31;;;;;;;2.97;2.77;;;;;;;-146.72;100.00;64895.28;4986193;28;21008;-74
2022/08/02 11:01:03;;;;;;;2.83;2.63;;;;;;;-146.72;100.00;64895.28;5031215;28;20469;-75
2022/08/02 11:03:31;;;;;;;3.33;3.10;;;;;;;-146.72;100.00;64895.28;5029146;28;20419;-73
2022/08/02 11:06:13;;;;;;;3.20;3.00;;;;;;;-146.72;100.00;64895.28;5040985;28;20446;-74
2022/08/02 11:09:27;;;;;;;3.40;2.93;;;;;;;-146.72;100.00;64895.28;4992470;28;20810;-74
2022/08/02 11:12:06;;;;;;;3.07;2.77;;;;;;;-146.72;100.00;64895.28;5024686;28;20486;-75
2022/08/02 11:14:38;;;;;;;2.90;2.70;;;;;;;-146.72;100.00;64895.28;5010377;28;20463;-75
2022/08/02 11:17:15;;;;;;;3.07;2.87;;;;;;;-146.72;100.00;64895.28;4994213;28;20460;-75
2022/08/02 11:20:07;;;;;;;3.13;2.93;;;;;;;-146.72;100.00;64895.28;5044479;28;20947;-75
2022/08/02 11:22:34;;;;;;;3.53;3.30;;;;;;;-146.72;100.00;64895.28;5072147;28;20456;-75
2022/08/02 11:25:22;;;;;;;3.40;2.93;;;;;;;-146.72;100.00;64895.28;5071964;28;20425;-75
2022/08/02 11:27:58;;;;;;;6.40;3.70;;;;;;;-146.72;100.00;64895.28;5057791;28;20446;-75
2022/08/02 11:30:26;;;;;;;3.43;3.13;;;;;;;-146.72;100.00;64895.28;5090901;28;20439;-75
2022/08/02 11:32:57;;;;;;;4.60;4.20;;;;;;;-146.72;100.00;64895.28;5060504;28;20526;-75
2022/08/02 11:35:36;;;;;;;4.53;3.60;;;;;;;-146.72;100.00;64895.28;5074300;28;20440;-75